Time;durP1;ratioP1;P1;durP2;ratioP2;P2;SDS_P1;SDS_P2;PMS_P1;PMS_P2;Temp;Humidity;BMP_temperature;BMP_pressure;BME280_temperature;BME280_humidity;BME280_pressure;Samples;Min_cycle;Max_cycle;Signal;HPM_P1;HPM_P2
2022/09/08 00:02:08;;;;;;;2.03;1.92;;;;;;;19.46;74.98;99065.84;4454757;32;32524;-87
2022/09/08 00:04:36;;;;;;;4.40;2.58;;;;;;;19.11;76.54;99061.44;4455132;32;32526;-89
2022/09/08 00:07:07;;;;;;;2.58;2.37;;;;;;;18.53;78.08;99057.22;4439533;32;35929;-83
2022/09/08 00:09:35;;;;;;;1.73;1.62;;;;;;;19.37;74.98;99053.97;4438581;32;34303;-89
2022/09/08 00:12:04;;;;;;;2.28;1.50;;;;;;;19.25;75.22;99058.13;4453373;32;33414;-88
2022/09/08 00:14:32;;;;;;;2.37;2.12;;;;;;;18.53;76.77;99057.22;4455098;32;34651;-87
2022/09/08 00:17:02;;;;;;;1.80;1.55;;;;;;;19.25;75.26;99055.47;4452503;32;34999;-86
2022/09/08 00:19:30;;;;;;;1.23;1.12;;;;;;;18.72;77.40;99038.72;4453821;32;34345;-84
2022/09/08 00:21:58;;;;;;;2.70;2.50;;;;;;;19.31;74.43;99038.47;4448306;32;33225;-88
2022/09/08 00:24:45;;;;;;;2.08;1.87;;;;;;;18.98;75.20;99043.66;4442956;32;33138;-89
2022/09/08 00:27:13;;;;;;;1.67;1.58;;;;;;;18.36;79.44;99038.72;4438262;32;34261;-85
2022/09/08 00:29:41;;;;;;;2.78;2.58;;;;;;;18.55;77.06;99043.97;4441887;32;34775;-90
2022/09/08 00:32:09;;;;;;;1.58;1.30;;;;;;;18.69;77.02;99032.75;4452260;32;34483;-86
2022/09/08 00:34:37;;;;;;;1.37;1.27;;;;;;;18.62;78.03;99036.59;4453961;32;34018;-88
2022/09/08 00:37:04;;;;;;;1.00;0.98;;;;;;;18.66;77.86;99031.09;4438929;32;35045;-88
2022/09/08 00:39:32;;;;;;;0.95;0.80;;;;;;;18.72;78.29;99035.22;4437596;32;33627;-89
2022/09/08 00:42:00;;;;;;;2.45;2.25;;;;;;;19.33;75.11;99033.94;4437877;32;34148;-88
2022/09/08 00:44:51;;;;;;;2.17;1.92;;;;;;;19.07;75.19;99019.44;4425736;32;32802;-86
2022/09/08 00:47:23;;;;;;;2.22;2.03;;;;;;;19.36;74.05;99025.00;4438516;32;34304;-88
2022/09/08 00:50:18;;;;;;;0.90;0.90;;;;;;;19.32;74.30;99024.31;4425791;32;34780;-88
2022/09/08 00:52:50;;;;;;;1.60;1.50;;;;;;;19.02;75.37;99024.94;4436055;32;34181;-88
2022/09/08 00:55:20;;;;;;;1.67;1.58;;;;;;;19.16;74.46;99012.84;4437243;32;33572;-89
2022/09/08 00:57:48;;;;;;;0.57;0.57;;;;;;;18.97;75.40;99020.84;4439749;32;35140;-89
2022/09/08 01:00:16;;;;;;;1.08;1.02;;;;;;;18.77;75.97;99015.59;4438187;32;35076;-83
2022/09/08 01:02:47;;;;;;;11.70;2.97;;;;;;;18.36;77.61;99021.09;4432167;32;33390;-83
2022/09/08 01:05:19;;;;;;;3.25;1.65;;;;;;;18.78;75.85;99016.47;4453977;32;34522;-88
2022/09/08 01:13:45;;;;;;;2.15;1.42;;;;;;;18.77;76.24;99023.50;4451004;32;31953;-83
2022/09/08 01:16:14;;;;;;;1.12;1.02;;;;;;;18.43;77.94;99028.72;4438626;32;34711;-89
2022/09/08 01:18:42;;;;;;;2.15;1.55;;;;;;;18.91;76.24;99016.72;4438025;32;35821;-89
2022/09/08 01:21:45;;;;;;;3.95;2.85;;;;;;;19.05;75.59;99013.41;4437374;32;35144;-87
2022/09/08 01:24:38;;;;;;;2.78;1.75;;;;;;;18.74;77.44;99010.50;4399416;32;32855;-83
2022/09/08 01:27:18;;;;;;;2.90;2.05;;;;;;;18.56;78.00;99006.97;4437960;32;33904;-83
2022/09/08 01:29:47;;;;;;;2.03;1.92;;;;;;;18.94;76.02;99020.06;4439124;32;34985;-88
2022/09/08 01:32:15;;;;;;;3.03;2.17;;;;;;;18.58;77.92;99009.50;4437913;32;35171;-84
2022/09/08 01:34:44;;;;;;;3.92;3.40;;;;;;;18.89;76.54;99010.69;4440766;32;32575;-87
2022/09/08 01:37:13;;;;;;;3.65;3.33;;;;;;;19.24;76.30;99006.25;4441942;32;34620;-88
2022/09/08 01:39:41;;;;;;;7.95;1.98;;;;;;;19.01;77.28;98999.50;4438980;32;35539;-88
2022/09/08 01:42:09;;;;;;;7.03;4.15;;;;;;;19.00;77.40;99005.69;4438787;32;34377;-87
2022/09/08 01:44:37;;;;;;;4.28;3.30;;;;;;;19.25;75.89;99007.09;4437482;32;33910;-88
2022/09/08 01:47:05;;;;;;;2.70;2.50;;;;;;;19.18;76.37;99003.91;4437508;32;33249;-84
2022/09/08 01:49:32;;;;;;;3.90;3.47;;;;;;;19.78;73.82;99013.16;4437855;32;34925;-87
2022/09/08 01:52:01;;;;;;;3.90;3.40;;;;;;;19.33;75.22;99008.41;4438664;32;34035;-84
2022/09/08 01:54:28;;;;;;;2.30;2.05;;;;;;;19.90;73.33;99009.84;4436900;32;33325;-86
2022/09/08 01:56:56;;;;;;;2.05;1.48;;;;;;;19.59;74.20;99002.66;4437584;32;33816;-88
2022/09/08 01:59:24;;;;;;;2.15;1.77;;;;;;;19.96;72.93;99012.16;4423837;32;34124;-83
2022/09/08 02:01:53;;;;;;;7.05;3.37;;;;;;;20.03;71.34;99002.09;4437873;32;35244;-87
2022/09/08 02:04:21;;;;;;;5.00;3.08;;;;;;;19.85;72.67;99007.47;4437744;32;33611;-88
2022/09/08 02:06:49;;;;;;;2.28;2.15;;;;;;;19.52;73.87;99003.00;4438416;32;34666;-88
2022/09/08 02:09:36;;;;;;;5.55;3.70;;;;;;;19.74;73.20;99011.63;4438108;32;35860;-84
2022/09/08 02:12:04;;;;;;;2.47;2.28;;;;;;;19.65;72.77;99007.63;4437078;32;33819;-88
2022/09/08 02:14:32;;;;;;;1.48;1.37;;;;;;;20.01;72.18;98999.56;4436457;32;34441;-87
2022/09/08 02:17:00;;;;;;;1.20;1.10;;;;;;;20.04;71.69;98998.50;4437290;32;33909;-86
2022/09/08 02:19:28;;;;;;;3.85;2.72;;;;;;;19.92;72.17;98996.53;4438599;32;35687;-84
2022/09/08 02:21:56;;;;;;;5.97;2.33;;;;;;;19.82;72.65;98998.84;4438250;32;34333;-88
2022/09/08 02:24:24;;;;;;;2.28;2.08;;;;;;;19.77;72.07;99001.72;4438030;32;33528;-89
2022/09/08 02:26:52;;;;;;;3.20;2.47;;;;;;;19.60;73.55;99001.75;4438466;32;34627;-89
2022/09/08 02:29:20;;;;;;;3.45;3.15;;;;;;;19.49;73.87;99000.53;4437888;32;34841;-83
2022/09/08 02:31:48;;;;;;;3.12;2.78;;;;;;;19.62;73.28;99000.72;4440568;32;34412;-87
2022/09/08 02:34:16;;;;;;;2.58;1.83;;;;;;;19.88;72.05;99003.78;4438485;32;33530;-83
2022/09/08 02:36:44;;;;;;;2.65;2.45;;;;;;;19.96;71.94;99009.53;4438305;32;33836;-83
2022/09/08 02:39:16;;;;;;;2.70;2.50;;;;;;;19.58;74.20;99007.09;4436855;32;34302;-86
2022/09/08 02:41:44;;;;;;;1.67;1.58;;;;;;;19.87;72.47;99002.94;4450018;32;33999;-88
2022/09/08 02:44:13;;;;;;;3.78;2.70;;;;;;;19.60;73.58;99005.22;4453993;32;33290;-88
2022/09/08 02:46:41;;;;;;;3.17;2.25;;;;;;;20.23;71.11;99004.47;4451998;32;33875;-88
2022/09/08 02:49:10;;;;;;;2.80;2.60;;;;;;;19.75;72.35;99003.59;4455700;32;34936;-87
2022/09/08 02:51:38;;;;;;;2.90;1.37;;;;;;;19.68;73.00;99003.03;4454643;32;34436;-83
2022/09/08 02:54:06;;;;;;;1.50;1.40;;;;;;;20.24;70.68;98994.75;4455553;32;33427;-88
2022/09/08 02:56:34;;;;;;;3.12;2.15;;;;;;;19.74;71.67;99012.47;4448556;32;33895;-88
2022/09/08 02:59:02;;;;;;;2.40;2.25;;;;;;;20.05;72.04;99005.53;4440452;32;35188;-86
2022/09/08 03:01:30;;;;;;;4.78;3.17;;;;;;;19.68;72.65;99002.19;4439843;32;35261;-88
2022/09/08 03:03:58;;;;;;;2.60;2.40;;;;;;;19.31;73.65;98994.44;4438752;32;34505;-85
2022/09/08 03:06:26;;;;;;;1.80;1.70;;;;;;;19.96;71.71;98996.31;4439692;32;34718;-84
2022/09/08 03:08:54;;;;;;;2.33;2.05;;;;;;;19.94;71.40;98997.31;4440172;32;35016;-88
2022/09/08 03:11:23;;;;;;;1.90;1.73;;;;;;;19.31;74.19;98993.59;4438579;32;34437;-84
2022/09/08 03:13:50;;;;;;;3.75;2.10;;;;;;;19.16;74.16;98997.84;4439788;32;34176;-89
2022/09/08 03:16:18;;;;;;;4.90;2.45;;;;;;;19.17;75.42;98990.81;4439808;32;34673;-89
2022/09/08 03:18:46;;;;;;;1.50;1.33;;;;;;;20.00;71.69;98989.91;4439431;32;34621;-88
2022/09/08 03:21:14;;;;;;;1.62;1.52;;;;;;;19.60;72.34;98984.09;4441702;32;34306;-87
2022/09/08 03:23:42;;;;;;;2.35;1.60;;;;;;;19.30;74.24;98989.22;4454371;32;33434;-89
2022/09/08 03:26:14;;;;;;;1.33;1.23;;;;;;;19.22;74.82;98978.19;4452060;32;34326;-89
2022/09/08 03:28:42;;;;;;;2.12;1.92;;;;;;;19.52;73.41;98971.31;4440087;32;34994;-84
2022/09/08 03:31:14;;;;;;;2.80;2.55;;;;;;;19.35;73.86;98981.91;4440147;32;34579;-89
2022/09/08 03:33:42;;;;;;;2.53;1.92;;;;;;;19.44;73.20;98981.44;4425879;32;34177;-85
2022/09/08 03:36:13;;;;;;;0.62;0.62;;;;;;;19.76;71.94;98984.16;4439481;32;34665;-87
2022/09/08 03:38:41;;;;;;;2.65;1.87;;;;;;;19.12;74.85;98989.25;4439971;32;35047;-89
2022/09/08 03:41:11;;;;;;;1.95;1.75;;;;;;;18.88;75.57;98990.50;4439625;32;34554;-89
2022/09/08 03:43:48;;;;;;;2.00;1.73;;;;;;;19.03;75.29;98995.00;4438320;32;32221;-83
2022/09/08 03:46:16;;;;;;;3.92;2.62;;;;;;;19.82;71.40;99004.97;4425726;32;34191;-88
2022/09/08 03:48:45;;;;;;;1.90;1.80;;;;;;;19.57;72.13;98993.97;4438626;32;34625;-89
2022/09/08 03:51:22;;;;;;;1.62;1.52;;;;;;;19.83;70.58;99001.38;4434079;32;34949;-89
2022/09/08 03:53:51;;;;;;;1.12;1.02;;;;;;;19.85;70.68;99001.31;4439784;32;34010;-88
2022/09/08 03:56:20;;;;;;;2.40;2.20;;;;;;;19.73;71.91;99001.94;4448816;32;31713;-89
2022/09/08 03:58:48;;;;;;;4.20;2.83;;;;;;;19.18;73.74;98998.62;4439240;32;34957;-90
2022/09/08 04:01:18;;;;;;;2.25;2.08;;;;;;;19.30;73.00;98999.78;4438083;32;34067;-88
2022/09/08 04:03:46;;;;;;;3.22;2.30;;;;;;;19.33;72.65;99008.41;4438322;32;33352;-83
2022/09/08 04:06:15;;;;;;;1.17;1.17;;;;;;;19.32;73.24;99006.72;4438916;32;33730;-89
2022/09/08 04:08:43;;;;;;;3.30;2.03;;;;;;;19.56;71.30;99013.41;4438965;32;34606;-89
2022/09/08 04:11:11;;;;;;;3.15;2.87;;;;;;;19.85;70.37;99015.41;4437791;32;34330;-88
2022/09/08 04:13:39;;;;;;;1.40;1.30;;;;;;;19.48;72.00;99019.97;4438446;32;33670;-85
2022/09/08 04:16:07;;;;;;;1.98;1.52;;;;;;;19.48;71.99;99022.59;4439212;32;33789;-87
2022/09/08 04:18:36;;;;;;;3.17;2.28;;;;;;;19.59;71.21;99018.53;4439845;32;35451;-85
2022/09/08 04:21:04;;;;;;;3.55;2.28;;;;;;;19.46;71.74;99018.31;4438095;32;35088;-83
2022/09/08 04:23:32;;;;;;;3.33;2.62;;;;;;;19.32;72.19;99011.13;4439027;32;34375;-88
2022/09/08 04:26:07;;;;;;;2.92;2.60;;;;;;;19.82;70.62;99009.41;4439467;32;34682;-83
2022/09/08 04:28:36;;;;;;;4.03;2.75;;;;;;;19.94;70.14;99013.16;4442179;32;34666;-87
2022/09/08 04:31:05;;;;;;;1.90;1.80;;;;;;;19.49;71.71;98999.69;4438051;32;35075;-83
2022/09/08 04:33:35;;;;;;;3.20;2.37;;;;;;;19.36;72.11;99002.13;4439647;32;32997;-88
2022/09/08 04:36:12;;;;;;;5.78;2.70;;;;;;;19.80;70.35;99005.97;4438992;32;34714;-83
2022/09/08 04:38:54;;;;;;;1.67;1.58;;;;;;;19.45;71.76;99006.06;4438922;32;35283;-83
2022/09/08 04:41:23;;;;;;;2.03;1.58;;;;;;;19.52;71.11;99002.16;4439021;32;34601;-88
2022/09/08 04:43:51;;;;;;;2.40;2.05;;;;;;;20.03;70.71;99008.25;4437780;32;34300;-89
2022/09/08 04:46:19;;;;;;;1.73;1.62;;;;;;;20.15;70.85;99009.34;4439034;32;33977;-89
2022/09/08 04:48:48;;;;;;;2.62;1.75;;;;;;;20.35;69.55;99005.59;4439478;32;35083;-83
2022/09/08 04:51:17;;;;;;;1.83;1.65;;;;;;;20.66;67.16;99010.97;4437879;32;34113;-89
2022/09/08 04:53:46;;;;;;;2.10;1.73;;;;;;;20.44;67.75;99012.16;4439541;32;33365;-88
2022/09/08 04:56:15;;;;;;;0.75;0.75;;;;;;;20.02;69.56;99011.81;4437741;32;33621;-89
2022/09/08 04:58:43;;;;;;;1.12;1.00;;;;;;;20.10;70.55;99018.47;4438239;32;35080;-86
2022/09/08 05:01:13;;;;;;;1.40;1.17;;;;;;;20.39;67.70;99014.22;4438372;32;34308;-83
2022/09/08 05:03:41;;;;;;;1.83;1.40;;;;;;;20.30;68.47;99009.44;4438132;32;32530;-90
2022/09/08 05:06:12;;;;;;;2.10;1.90;;;;;;;20.89;66.16;99013.13;4438692;32;33747;-83
2022/09/08 05:08:42;;;;;;;7.30;2.05;;;;;;;21.02;65.98;99018.56;4437780;32;34964;-89
2022/09/08 05:11:10;;;;;;;11.45;2.55;;;;;;;20.92;66.89;99020.03;4438439;32;34372;-83
2022/09/08 05:13:39;;;;;;;4.57;3.37;;;;;;;20.63;67.76;99018.13;4450427;32;33244;-87
2022/09/08 05:16:09;;;;;;;3.08;2.17;;;;;;;20.94;65.50;99021.62;4431811;32;33644;-84
2022/09/08 05:18:37;;;;;;;2.00;1.90;;;;;;;21.33;65.37;99017.56;4453539;32;35332;-88
2022/09/08 05:21:06;;;;;;;4.18;2.95;;;;;;;21.40;64.59;99024.19;4454614;32;34290;-88
2022/09/08 05:23:35;;;;;;;2.47;1.70;;;;;;;21.38;65.05;99015.50;4439090;32;33775;-84
2022/09/08 05:26:06;;;;;;;2.35;2.15;;;;;;;21.57;63.58;99025.84;4441857;32;33895;-88
2022/09/08 05:28:37;;;;;;;2.53;2.12;;;;;;;21.27;64.60;99025.87;4441852;32;35127;-83
2022/09/08 05:31:15;;;;;;;2.10;1.95;;;;;;;21.29;65.37;99015.22;4446325;32;35231;-84
2022/09/08 05:33:43;;;;;;;2.40;2.12;;;;;;;21.45;65.07;99015.97;4438131;32;33510;-83
2022/09/08 05:36:22;;;;;;;2.65;2.42;;;;;;;21.54;65.64;99019.91;4439229;32;33581;-91
2022/09/08 05:38:51;;;;;;;2.92;2.15;;;;;;;21.60;63.42;99024.84;4437926;32;34230;-83
2022/09/08 05:41:19;;;;;;;3.20;2.45;;;;;;;21.98;62.22;99020.75;4438491;32;34141;-83
2022/09/08 05:43:47;;;;;;;3.00;2.12;;;;;;;21.77;67.19;99021.97;4438600;32;33108;-90
2022/09/08 05:46:15;;;;;;;2.37;2.17;;;;;;;21.96;63.26;99026.13;4438056;32;34768;-91
2022/09/08 05:48:46;;;;;;;7.95;3.58;;;;;;;22.21;61.56;99019.28;4439261;32;35369;-89
2022/09/08 05:51:17;;;;;;;4.65;2.95;;;;;;;21.64;64.58;99023.69;4430920;32;255846;-87
2022/09/08 05:53:47;;;;;;;2.10;1.50;;;;;;;22.56;60.37;99005.56;4438877;32;32893;-89
2022/09/08 05:56:18;;;;;;;1.85;1.60;;;;;;;22.33;60.89;99007.91;4437662;32;33919;-88
2022/09/08 05:58:52;;;;;;;1.33;1.23;;;;;;;22.45;60.08;99007.12;4438918;32;34640;-83
2022/09/08 06:01:30;;;;;;;3.12;1.55;;;;;;;22.45;61.53;99012.44;4449458;32;35063;-83
2022/09/08 06:03:59;;;;;;;1.35;1.25;;;;;;;22.36;61.01;99013.03;4437981;32;33175;-83
2022/09/08 06:06:27;;;;;;;2.90;2.50;;;;;;;23.05;60.98;99016.47;4437233;32;33819;-82
2022/09/08 06:08:59;;;;;;;3.67;2.65;;;;;;;23.24;58.47;99010.75;4438809;32;34956;-90
2022/09/08 06:11:29;;;;;;;4.15;2.33;;;;;;;23.13;60.75;99017.75;4438598;32;34695;-83
2022/09/08 06:13:57;;;;;;;2.78;2.33;;;;;;;23.19;59.20;99007.56;4449455;32;34201;-87
2022/09/08 06:16:26;;;;;;;5.05;3.17;;;;;;;23.61;60.02;99008.22;4436946;32;34043;-88
2022/09/08 06:18:57;;;;;;;2.37;2.17;;;;;;;23.11;58.04;99011.69;4436670;32;34170;-89
2022/09/08 06:21:27;;;;;;;1.90;1.58;;;;;;;24.09;56.85;99006.66;4437360;32;34434;-83
2022/09/08 06:23:58;;;;;;;2.15;1.87;;;;;;;23.76;55.63;99005.44;4451787;32;32941;-90
2022/09/08 06:26:28;;;;;;;3.05;2.65;;;;;;;23.82;55.56;98999.69;4453011;32;33187;-91
2022/09/08 06:29:13;;;;;;;1.67;1.50;;;;;;;23.56;57.32;98997.06;4440588;32;34937;-90
2022/09/08 06:31:52;;;;;;;2.37;2.17;;;;;;;24.09;55.10;98991.56;4437653;32;34080;-82
2022/09/08 06:34:26;;;;;;;3.45;2.80;;;;;;;24.68;56.05;98988.16;4437516;32;33105;-90
2022/09/08 06:37:10;;;;;;;3.22;2.17;;;;;;;24.65;53.64;98991.03;4436933;32;33894;-81
2022/09/08 06:39:58;;;;;;;2.30;2.20;;;;;;;24.91;53.11;98982.91;4437485;32;35887;-92
2022/09/08 06:42:42;;;;;;;2.80;1.90;;;;;;;24.55;54.38;98976.72;4436884;32;35064;-89
2022/09/08 06:45:20;;;;;;;4.03;2.78;;;;;;;25.25;53.83;98981.19;4438486;32;33468;-88
2022/09/08 06:48:13;;;;;;;3.08;1.62;;;;;;;24.65;52.83;98975.06;4448139;32;33913;-84
2022/09/08 06:50:55;;;;;;;2.47;2.03;;;;;;;24.77;52.62;98974.13;4446146;32;35086;-90
2022/09/08 06:53:25;;;;;;;3.00;1.95;;;;;;;25.41;51.56;98972.84;4440795;32;34332;-90
2022/09/08 06:56:04;;;;;;;1.27;1.17;;;;;;;25.17;51.58;98967.59;4437012;32;33319;-88
2022/09/08 06:59:00;;;;;;;2.25;1.62;;;;;;;26.64;49.43;98960.31;4448369;32;33757;-89
2022/09/08 07:01:35;;;;;;;1.67;1.12;;;;;;;25.96;52.43;98956.13;4437572;32;35856;-84
2022/09/08 07:04:17;;;;;;;1.55;1.35;;;;;;;25.29;52.71;98955.16;4441641;32;34212;-89
2022/09/08 07:07:04;;;;;;;2.62;1.67;;;;;;;25.69;51.03;98962.69;4441802;32;34121;-94
2022/09/08 07:09:34;;;;;;;1.55;1.45;;;;;;;25.81;51.38;98971.53;4449525;32;34855;-84
2022/09/08 07:12:15;;;;;;;5.05;2.87;;;;;;;25.82;51.76;98963.41;4436616;32;35234;-84
2022/09/08 07:14:44;;;;;;;2.72;2.30;;;;;;;26.07;49.93;98956.13;4436698;32;34735;-84
2022/09/08 07:17:19;;;;;;;2.53;2.25;;;;;;;26.03;49.32;98957.34;4438807;32;33626;-84
2022/09/08 07:19:53;;;;;;;1.73;1.60;;;;;;;25.71;52.50;98956.28;4451418;32;33823;-85
2022/09/08 07:22:52;;;;;;;1.30;1.20;;;;;;;26.41;50.40;98950.69;4450671;32;35677;-86
2022/09/08 07:25:35;;;;;;;2.87;2.45;;;;;;;26.15;51.18;98960.84;4451933;32;34360;-84
2022/09/08 07:28:13;;;;;;;1.50;1.40;;;;;;;26.02;51.02;98964.50;4447077;32;33478;-84
2022/09/08 07:30:41;;;;;;;2.70;2.05;;;;;;;26.89;49.40;98966.28;4436702;32;33992;-89
2022/09/08 07:33:12;;;;;;;3.53;2.12;;;;;;;26.71;49.19;98960.66;4437906;32;35975;-87
2022/09/08 07:36:01;;;;;;;2.50;2.25;;;;;;;26.41;48.81;98964.03;4438521;32;34784;-84
2022/09/08 07:38:36;;;;;;;1.55;1.23;;;;;;;26.67;47.89;98962.75;4439687;32;33505;-84
2022/09/08 07:41:06;;;;;;;1.70;1.58;;;;;;;27.45;50.63;98959.75;4426048;32;34786;-85
2022/09/08 07:43:34;;;;;;;1.77;1.67;;;;;;;27.59;45.94;98966.56;4446724;32;34401;-90
2022/09/08 07:46:17;;;;;;;3.50;2.22;;;;;;;27.52;48.24;98968.94;4439937;32;34444;-84
2022/09/08 07:48:48;;;;;;;1.83;1.48;;;;;;;28.70;44.61;98973.63;4438653;32;33394;-84
2022/09/08 07:51:19;;;;;;;1.27;1.15;;;;;;;27.99;46.89;98981.84;4439280;32;33752;-86
2022/09/08 07:54:01;;;;;;;3.12;2.17;;;;;;;27.55;46.55;98975.88;4450855;32;36016;-84
2022/09/08 07:56:41;;;;;;;3.08;1.98;;;;;;;27.75;46.51;98985.66;4451736;32;34387;-84
2022/09/08 07:59:33;;;;;;;3.08;1.98;;;;;;;27.96;45.04;98990.13;4427592;32;32183;-84
2022/09/08 08:02:20;;;;;;;1.17;1.15;;;;;;;28.36;47.48;98981.16;4439345;32;33798;-85
2022/09/08 08:05:07;;;;;;;2.00;1.83;;;;;;;28.51;44.20;98987.81;4439800;32;35558;-86
2022/09/08 08:07:41;;;;;;;2.70;1.40;;;;;;;28.45;44.97;98990.19;4440286;32;33721;-86
2022/09/08 08:10:17;;;;;;;2.30;1.52;;;;;;;29.04;44.30;98991.94;4452379;32;34474;-85
2022/09/08 08:12:54;;;;;;;2.50;2.03;;;;;;;29.03;45.17;98995.63;4452642;32;33816;-85
2022/09/08 08:15:37;;;;;;;2.05;1.80;;;;;;;29.28;43.47;98994.19;4455119;32;35046;-85
2022/09/08 08:18:26;;;;;;;0.60;0.60;;;;;;;28.58;45.30;99003.37;4448115;32;33995;-91
2022/09/08 08:21:13;;;;;;;1.25;1.15;;;;;;;28.26;45.47;99001.75;4426030;32;32977;-85
2022/09/08 08:24:09;;;;;;;1.35;1.25;;;;;;;29.21;43.43;98998.44;4437820;32;33627;-84
2022/09/08 08:26:43;;;;;;;;;;;;;;;29.08;43.32;98997.84;4439969;32;34954;-84
2022/09/08 08:29:20;;;;;;;3.35;2.53;;;;;;;29.71;44.74;99005.34;4441485;32;34595;-84
2022/09/08 08:31:53;;;;;;;3.05;1.65;;;;;;;29.19;43.79;99015.66;4439919;32;33810;-84
2022/09/08 08:34:30;;;;;;;1.55;1.45;;;;;;;29.87;40.78;99010.13;4450577;32;33818;-84
2022/09/08 08:37:02;;;;;;;1.37;1.15;;;;;;;29.77;41.79;99006.62;4448598;32;35037;-83
2022/09/08 08:39:33;;;;;;;2.53;1.87;;;;;;;29.27;43.13;99008.56;4446232;32;34459;-90
2022/09/08 08:42:48;;;;;;;2.17;2.00;;;;;;;29.34;42.44;99013.38;4425165;32;31579;-89
2022/09/08 08:45:19;;;;;;;2.92;2.10;;;;;;;29.29;42.25;99001.22;4439574;32;33823;-92
2022/09/08 08:48:24;;;;;;;5.32;3.03;;;;;;;29.19;42.91;99010.28;4438754;32;34894;-91
2022/09/08 08:51:31;;;;;;;3.03;2.37;;;;;;;29.49;43.65;99001.19;4437200;32;34934;-84
2022/09/08 08:54:32;;;;;;;4.22;3.05;;;;;;;29.01;42.99;99007.47;4437118;32;33345;-84
2022/09/08 08:57:24;;;;;;;2.42;1.60;;;;;;;29.55;44.04;99002.44;4439531;32;34597;-84
2022/09/08 09:00:14;;;;;;;1.37;1.27;;;;;;;28.78;46.37;98997.03;4438395;32;35428;-87
2022/09/08 09:03:06;;;;;;;2.25;1.55;;;;;;;29.40;42.77;98994.00;4439021;32;34851;-84
2022/09/08 09:05:52;;;;;;;1.40;1.25;;;;;;;29.47;44.62;98984.38;4438976;32;33347;-89
2022/09/08 09:08:48;;;;;;;1.48;1.37;;;;;;;29.39;43.36;98968.19;4443156;32;34289;-84
2022/09/08 09:11:38;;;;;;;2.55;2.08;;;;;;;30.01;42.83;98972.03;4452675;32;34981;-85
2022/09/08 09:14:48;;;;;;;2.33;1.20;;;;;;;29.81;43.62;98965.94;4440110;32;34593;-90
2022/09/08 09:17:59;;;;;;;12.35;2.47;;;;;;;29.89;43.20;98959.81;4439099;32;33359;-90
2022/09/08 09:20:37;;;;;;;2.08;1.58;;;;;;;30.72;40.63;98956.97;4424332;32;33924;-92
2022/09/08 09:23:34;;;;;;;4.40;2.85;;;;;;;30.78;40.72;98960.91;4439092;32;34634;-87
2022/09/08 09:26:09;;;;;;;;;;;;;;;30.27;40.90;98959.72;4437953;32;34158;-88
2022/09/08 09:29:12;;;;;;;4.78;2.90;;;;;;;31.06;42.93;98956.28;4441468;32;34123;-91
2022/09/08 09:31:43;;;;;;;2.58;1.70;;;;;;;31.17;42.05;98955.19;4434188;32;32852;-94
2022/09/08 09:34:28;;;;;;;0.88;0.85;;;;;;;31.13;40.32;98937.66;4448634;32;34914;-90
2022/09/08 09:37:33;;;;;;;2.65;1.40;;;;;;;31.40;40.06;98939.34;4453495;32;35048;-89
2022/09/08 09:41:09;;;;;;;0.68;0.68;;;;;;;31.12;40.07;98930.59;4439012;32;32524;-87
2022/09/08 09:44:04;;;;;;;1.33;1.23;;;;;;;32.34;38.51;98926.75;4412842;32;34824;-87
2022/09/08 09:46:44;;;;;;;1.57;1.33;;;;;;;31.89;38.25;98938.72;4421697;32;34927;-94
2022/09/08 09:49:54;;;;;;;0.80;0.80;;;;;;;30.94;40.06;98938.72;4438044;32;34639;-89
2022/09/08 09:53:00;;;;;;;0.98;0.85;;;;;;;30.80;41.55;98938.25;4437968;32;33440;-87
2022/09/08 09:55:53;;;;;;;1.48;1.37;;;;;;;31.09;40.36;98937.12;4438420;32;33955;-89
2022/09/08 09:58:56;;;;;;;3.80;1.60;;;;;;;31.55;40.74;98937.78;4438256;32;34926;-87
2022/09/08 10:01:45;;;;;;;1.95;1.80;;;;;;;31.83;39.17;98937.53;4438928;32;34510;-89
2022/09/08 10:04:35;;;;;;;1.33;1.17;;;;;;;32.34;39.08;98937.53;4438465;32;33861;-90
2022/09/08 10:07:24;;;;;;;1.23;1.12;;;;;;;31.86;39.21;98934.53;4437875;32;34342;-89
2022/09/08 10:10:28;;;;;;;0.77;0.77;;;;;;;31.46;40.15;98930.62;4438499;32;35004;-89
2022/09/08 10:13:34;;;;;;;2.05;1.35;;;;;;;31.27;40.67;98928.16;4436908;32;34377;-91
2022/09/08 10:16:02;;;;;;;1.27;1.17;;;;;;;31.54;40.27;98927.16;4437749;32;33292;-90
2022/09/08 10:18:52;;;;;;;2.15;1.20;;;;;;;32.29;38.75;98924.53;4438390;32;33903;-89
2022/09/08 10:21:56;;;;;;;1.27;1.17;;;;;;;31.86;42.87;98923.75;4437710;32;35161;-88
2022/09/08 10:24:55;;;;;;;0.62;0.62;;;;;;;32.09;40.34;98905.16;4437538;32;35128;-87
2022/09/08 10:27:48;;;;;;;1.33;1.23;;;;;;;32.54;38.32;98900.31;4435640;32;32034;-87
2022/09/08 10:30:20;;;;;;;2.83;1.98;;;;;;;32.24;38.39;98882.94;4452388;32;32691;-91
2022/09/08 10:33:07;;;;;;;1.42;1.02;;;;;;;32.91;39.18;98896.25;4439534;32;34921;-91
2022/09/08 10:35:41;;;;;;;1.23;1.05;;;;;;;33.29;40.20;98898.41;4438601;32;35219;-89
2022/09/08 10:38:46;;;;;;;1.30;0.90;;;;;;;32.18;40.83;98897.94;4438274;32;33118;-89
2022/09/08 10:41:36;;;;;;;1.75;1.20;;;;;;;32.52;40.63;98888.84;4438016;32;33520;-94
2022/09/08 10:44:15;;;;;;;0.88;0.85;;;;;;;32.15;39.66;98909.03;4437792;32;34958;-92
2022/09/08 10:47:11;;;;;;;1.15;0.80;;;;;;;32.35;38.84;98911.41;4436893;32;32976;-93
2022/09/08 10:50:08;;;;;;;0.73;0.73;;;;;;;32.60;38.92;98894.28;4437089;32;33421;-88
2022/09/08 10:52:44;;;;;;;1.05;1.00;;;;;;;32.97;37.53;98897.47;4438680;32;33956;-89
2022/09/08 10:55:37;;;;;;;9.32;1.65;;;;;;;32.93;37.58;98888.84;4440992;32;34846;-89
2022/09/08 10:58:17;;;;;;;0.55;0.55;;;;;;;32.37;37.94;98885.12;4442938;32;34439;-90
2022/09/08 11:01:07;;;;;;;1.17;1.02;;;;;;;32.45;38.99;98901.31;4438309;32;33536;-92
2022/09/08 11:04:16;;;;;;;0.40;0.40;;;;;;;32.56;38.09;98895.59;4437265;32;33513;-88
2022/09/08 11:06:47;;;;;;;0.40;0.40;;;;;;;32.48;39.79;98884.81;4452766;32;35949;-90
2022/09/08 11:09:34;;;;;;;2.20;1.40;;;;;;;32.90;39.01;98883.81;4447313;32;34780;-90
2022/09/08 11:12:41;;;;;;;0.28;0.28;;;;;;;32.56;37.14;98890.22;4438988;32;33366;-88
2022/09/08 11:15:26;;;;;;;0.88;0.77;;;;;;;32.75;38.40;98896.28;4439948;32;33838;-90
2022/09/08 11:18:16;;;;;;;0.82;0.77;;;;;;;33.66;38.04;98897.78;4438785;32;35772;-87
2022/09/08 11:20:59;;;;;;;0.95;0.88;;;;;;;33.79;34.88;98895.34;4439339;32;33228;-91
2022/09/08 11:23:57;;;;;;;1.27;1.17;;;;;;;33.93;35.08;98896.44;4438485;32;33050;-87
2022/09/08 11:27:02;;;;;;;0.50;0.32;;;;;;;33.72;37.18;98891.66;4427778;32;33875;-88
2022/09/08 11:29:34;;;;;;;0.63;0.50;;;;;;;33.50;34.22;98881.66;4439675;32;34960;-89
2022/09/08 11:32:21;;;;;;;0.73;0.73;;;;;;;33.28;34.56;98897.56;4426361;32;34288;-87
2022/09/08 11:35:01;;;;;;;0.57;0.57;;;;;;;33.18;34.03;98891.50;4441682;32;33104;-85
2022/09/08 11:38:08;;;;;;;1.05;0.95;;;;;;;32.75;35.11;98890.91;4438927;32;33196;-89
2022/09/08 11:40:48;;;;;;;1.30;1.20;;;;;;;33.01;35.08;98891.53;4440065;32;35091;-91
2022/09/08 11:43:29;;;;;;;1.27;1.05;;;;;;;33.33;33.38;98879.00;4439493;32;34302;-90
2022/09/08 11:46:03;;;;;;;0.50;0.50;;;;;;;33.35;33.79;98889.63;4440046;32;33006;-92
2022/09/08 11:48:59;;;;;;;0.73;0.68;;;;;;;33.41;34.17;98887.06;4441150;32;33981;-87
2022/09/08 11:52:29;;;;;;;1.40;0.88;;;;;;;32.47;34.90;98881.28;4454155;32;34586;-91
2022/09/08 11:55:42;;;;;;;0.25;0.25;;;;;;;32.71;39.29;98868.81;4413414;32;34223;-90
2022/09/08 11:58:19;;;;;;;0.50;0.50;;;;;;;32.47;34.90;98869.66;4438797;32;34338;-90
2022/09/08 12:01:00;;;;;;;1.75;1.20;;;;;;;32.63;35.18;98879.59;4439926;32;34076;-86
2022/09/08 12:03:41;;;;;;;0.50;0.35;;;;;;;31.62;37.19;98881.44;4438852;32;34638;-88
2022/09/08 12:06:20;;;;;;;0.40;0.40;;;;;;;30.71;37.48;98888.13;4452508;32;33971;-87
2022/09/08 12:09:33;;;;;;;0.40;0.40;;;;;;;31.20;38.77;98879.53;4439045;32;33063;-86
2022/09/08 12:12:23;;;;;;;0.30;0.30;;;;;;;30.88;38.18;98870.25;4439755;32;34733;-88
2022/09/08 12:15:06;;;;;;;0.62;0.62;;;;;;;31.04;37.53;98868.69;4438189;32;35879;-88
2022/09/08 12:17:37;;;;;;;0.82;0.55;;;;;;;31.49;37.35;98854.97;4437553;32;34544;-89
2022/09/08 12:20:30;;;;;;;1.05;0.80;;;;;;;31.56;37.94;98847.94;4448385;32;33628;-90
2022/09/08 12:23:13;;;;;;;0.28;0.28;;;;;;;32.15;38.05;98857.84;4441051;32;33805;-87
2022/09/08 12:25:57;;;;;;;1.10;0.70;;;;;;;31.80;37.71;98856.25;4439356;32;35077;-87
2022/09/08 12:29:07;;;;;;;2.75;1.27;;;;;;;32.00;37.76;98852.25;4438242;32;34242;-86
2022/09/08 12:31:57;;;;;;;0.70;0.70;;;;;;;31.23;38.55;98843.41;4431435;32;32904;-90